createdAt,value
2023-03-30T00:01:54.530Z,100413.69
2023-03-30T00:05:03.397Z,100404.69
2023-03-30T00:08:05.742Z,100405.41
2023-03-30T00:11:13.323Z,100405.34
2023-03-30T00:14:17.963Z,100392.81
2023-03-30T00:17:19.518Z,100382.00
2023-03-30T00:20:22.510Z,100385.28
2023-03-30T00:26:49.050Z,100372.75
2023-03-30T00:29:50.812Z,100364.78
2023-03-30T00:32:53.870Z,100369.16
2023-03-30T00:35:57.185Z,100368.16
2023-03-30T00:38:58.699Z,100363.72
2023-03-30T00:42:00.617Z,100349.50
2023-03-30T00:45:08.517Z,100354.69
2023-03-30T00:48:15.766Z,100368.84
2023-03-30T00:51:19.042Z,100348.31
2023-03-30T00:54:20.939Z,100302.31
2023-03-30T00:57:25.214Z,100323.88
2023-03-30T01:00:26.871Z,100322.28
2023-03-30T01:03:32.951Z,100327.50
2023-03-30T01:06:36.885Z,100328.25
2023-03-30T01:09:41.056Z,100310.41
2023-03-30T01:12:43.619Z,100293.53
2023-03-30T01:16:07.908Z,100283.13
2023-03-30T01:19:46.020Z,100284.38
2023-03-30T01:23:03.748Z,100277.69
2023-03-30T01:26:39.484Z,100264.09
2023-03-30T01:30:24.829Z,100255.81
2023-03-30T01:33:56.067Z,100245.69
2023-03-30T01:37:34.582Z,100235.59
2023-03-30T01:40:52.349Z,100223.72
2023-03-30T01:44:04.120Z,100216.91
2023-03-30T01:47:23.952Z,100208.19
2023-03-30T01:50:33.575Z,100210.22
2023-03-30T01:53:49.028Z,100200.66
2023-03-30T01:56:59.889Z,100207.75
2023-03-30T02:00:14.348Z,100199.91
2023-03-30T02:03:32.671Z,100197.25
2023-03-30T02:06:40.150Z,100182.31
2023-03-30T02:09:43.866Z,100167.31
2023-03-30T02:12:47.009Z,100169.97
2023-03-30T02:15:53.086Z,100162.03
2023-03-30T02:18:55.345Z,100146.09
2023-03-30T02:21:57.134Z,100139.13
2023-03-30T02:24:58.688Z,100147.16
2023-03-30T02:28:00.486Z,100145.47
2023-03-30T02:31:04.570Z,100145.38
2023-03-30T02:34:09.616Z,100138.16
2023-03-30T02:37:43.474Z,100137.00
2023-03-30T02:40:54.156Z,100122.56
2023-03-30T02:44:14.383Z,100108.03
2023-03-30T02:47:37.248Z,100097.09
2023-03-30T02:50:57.305Z,100104.72
2023-03-30T02:54:13.057Z,100102.72
2023-03-30T02:57:53.010Z,100113.88
2023-03-30T03:01:09.273Z,100111.75
2023-03-30T03:04:12.351Z,100114.16
2023-03-30T03:07:14.462Z,100107.78
2023-03-30T03:10:16.083Z,100102.19
2023-03-30T03:13:19.069Z,100102.06
2023-03-30T03:16:20.791Z,100093.88
2023-03-30T03:19:23.086Z,100085.06
2023-03-30T03:22:24.663Z,100089.31
2023-03-30T03:25:26.257Z,100084.13
2023-03-30T03:28:28.603Z,100072.53
2023-03-30T03:31:30.374Z,100074.44
2023-03-30T03:34:31.970Z,100070.00
2023-03-30T03:37:33.551Z,100060.22
2023-03-30T03:40:35.141Z,100059.25
2023-03-30T03:43:36.790Z,100049.28
2023-03-30T03:46:38.385Z,100050.75
2023-03-30T03:49:40.028Z,100046.06
2023-03-30T03:52:41.601Z,100043.16
2023-03-30T03:55:44.787Z,100042.00
2023-03-30T03:58:46.570Z,100049.63
2023-03-30T04:01:48.371Z,100039.66
2023-03-30T04:04:51.190Z,100047.28
2023-03-30T04:07:56.851Z,100046.09
2023-03-30T04:11:08.077Z,100033.44
2023-03-30T04:14:09.766Z,100029.59
2023-03-30T04:17:11.852Z,100024.06
2023-03-30T04:20:13.453Z,100021.19
2023-03-30T04:23:16.506Z,100019.13
2023-03-30T04:26:18.083Z,100017.97
2023-03-30T04:29:20.823Z,100012.41
2023-03-30T04:32:22.392Z,100008.69
2023-03-30T04:35:23.935Z,100004.84
2023-03-30T04:38:25.502Z,100000.13
2023-03-30T04:41:35.897Z,100000.63
2023-03-30T04:44:37.494Z,100008.25
2023-03-30T04:47:39.067Z,100001.84
2023-03-30T04:50:41.298Z,100000.78
2023-03-30T04:53:42.980Z,100011.19
2023-03-30T04:56:44.667Z,100003.94
2023-03-30T04:59:46.284Z,100000.31
2023-03-30T05:02:47.989Z,100003.84
2023-03-30T05:05:49.634Z,100003.63
2023-03-30T05:08:51.544Z,99998.16
2023-03-30T05:11:53.097Z,100000.81
2023-03-30T05:14:54.683Z,99999.88
2023-03-30T05:17:56.758Z,100006.78
2023-03-30T05:20:59.142Z,100003.97
2023-03-30T05:24:00.828Z,100007.38
2023-03-30T05:27:02.891Z,100002.75
2023-03-30T05:30:04.842Z,99997.09
2023-03-30T05:33:09.654Z,99984.28
2023-03-30T05:36:11.726Z,99986.63
2023-03-30T05:39:13.603Z,99980.09
2023-03-30T05:42:15.400Z,99981.53
2023-03-30T05:45:17.473Z,99972.34
2023-03-30T05:48:19.433Z,99974.78
2023-03-30T05:51:21.052Z,99972.00
2023-03-30T05:54:22.750Z,99977.06
2023-03-30T05:57:24.316Z,99992.78
2023-03-30T06:00:26.587Z,99993.41
2023-03-30T06:03:28.226Z,99986.03
2023-03-30T06:06:30.186Z,99987.34
2023-03-30T06:09:31.936Z,99983.50
2023-03-30T06:12:33.832Z,99982.25
2023-03-30T06:15:35.371Z,99980.22
2023-03-30T06:18:37.022Z,99975.47
2023-03-30T06:21:38.558Z,99982.28
2023-03-30T06:24:40.226Z,99978.53
2023-03-30T06:27:44.165Z,99971.13
2023-03-30T06:30:48.822Z,99985.94
2023-03-30T06:33:51.266Z,99983.75
2023-03-30T06:36:53.850Z,99979.84
2023-03-30T06:39:57.352Z,99982.25
2023-03-30T06:42:58.927Z,99986.25
2023-03-30T06:46:00.836Z,99991.78
2023-03-30T06:49:02.672Z,99984.50
2023-03-30T06:52:05.684Z,99979.72
2023-03-30T06:55:09.630Z,99986.22
2023-03-30T06:58:11.406Z,99993.38
2023-03-30T07:01:15.851Z,99985.66
2023-03-30T07:04:17.602Z,99979.47
2023-03-30T07:07:19.239Z,99986.63
2023-03-30T07:10:22.146Z,99980.44
2023-03-30T07:13:23.742Z,99972.44
2023-03-30T07:16:25.782Z,99967.97
2023-03-30T07:19:27.429Z,99958.88
2023-03-30T07:22:28.998Z,99970.13
2023-03-30T07:25:30.691Z,99967.78
2023-03-30T07:28:32.271Z,99970.91
2023-03-30T07:31:34.089Z,99975.75
2023-03-30T07:34:35.643Z,99979.84
2023-03-30T07:37:40.048Z,99980.56
2023-03-30T07:40:42.114Z,99980.31
2023-03-30T07:43:43.782Z,99981.88
2023-03-30T07:46:45.623Z,99980.50
2023-03-30T07:49:47.190Z,99980.56
2023-03-30T07:52:51.392Z,99981.78
2023-03-30T07:55:53.125Z,99979.31
2023-03-30T07:58:54.974Z,99973.31
2023-03-30T08:01:57.076Z,99976.88
2023-03-30T08:05:00.255Z,99983.81
2023-03-30T08:08:01.936Z,99981.91
2023-03-30T08:11:03.757Z,99980.13
2023-03-30T08:14:05.945Z,99980.31
2023-03-30T08:17:07.794Z,99986.22
2023-03-30T08:20:11.632Z,99982.84
2023-03-30T08:23:13.652Z,99991.00
2023-03-30T08:26:15.214Z,99995.47
2023-03-30T08:29:17.138Z,100000.09
2023-03-30T08:32:18.723Z,99999.53
2023-03-30T08:35:20.372Z,100007.66
2023-03-30T08:38:21.956Z,100010.34
2023-03-30T08:41:29.493Z,100003.03
2023-03-30T08:44:38.068Z,100009.09
2023-03-30T08:47:44.103Z,99999.41
2023-03-30T08:51:09.157Z,99998.56
2023-03-30T08:54:19.422Z,99998.66
2023-03-30T08:57:33.373Z,99997.97
2023-03-30T09:01:06.409Z,99999.53
2023-03-30T09:04:21.302Z,99983.69
2023-03-30T09:07:30.113Z,99980.78
2023-03-30T09:10:40.043Z,99973.75
2023-03-30T09:13:45.807Z,99984.47
2023-03-30T09:17:13.585Z,99989.88
2023-03-30T09:20:18.731Z,99970.19
2023-03-30T09:23:20.317Z,99979.50
2023-03-30T09:26:47.790Z,99978.38
2023-03-30T09:29:52.239Z,99981.38
2023-03-30T09:33:00.916Z,99961.38
2023-03-30T09:36:14.957Z,99982.91
2023-03-30T09:39:19.783Z,99987.97
2023-03-30T09:42:21.281Z,99994.44
2023-03-30T09:45:28.241Z,99997.09
2023-03-30T09:48:39.112Z,100005.13
2023-03-30T09:52:00.863Z,100013.44
2023-03-30T09:55:20.653Z,100005.69
2023-03-30T09:58:33.659Z,100003.19
2023-03-30T10:01:38.085Z,100003.44
2023-03-30T10:04:58.511Z,100009.91
2023-03-30T10:08:03.395Z,100007.09
2023-03-30T10:11:06.654Z,100008.25
2023-03-30T10:14:32.268Z,100011.63
2023-03-30T10:17:34.168Z,100007.53
2023-03-30T10:20:36.792Z,100019.78
2023-03-30T10:23:41.936Z,100017.66
2023-03-30T10:26:47.052Z,100002.00
2023-03-30T10:29:50.826Z,100009.91
2023-03-30T10:32:55.503Z,100005.13
2023-03-30T10:36:03.142Z,100001.44
2023-03-30T10:39:26.344Z,100012.72
2023-03-30T10:42:32.901Z,100016.38
2023-03-30T10:45:34.367Z,100020.34
2023-03-30T10:49:20.465Z,100026.41
2023-03-30T10:53:10.515Z,100032.88
2023-03-30T10:56:43.164Z,100049.91
2023-03-30T11:00:00.299Z,100048.22
2023-03-30T11:03:12.832Z,100057.78
2023-03-30T11:06:25.075Z,100063.25
2023-03-30T11:09:36.216Z,100066.34
2023-03-30T11:12:45.992Z,100054.41
2023-03-30T11:15:54.271Z,100045.09
2023-03-30T11:19:01.846Z,100064.81
2023-03-30T11:22:16.773Z,100063.25
2023-03-30T11:25:25.573Z,100065.66
2023-03-30T11:28:54.830Z,100071.41
2023-03-30T11:32:02.165Z,100068.91
2023-03-30T11:35:17.282Z,100065.38
2023-03-30T11:38:24.710Z,100066.22
2023-03-30T11:41:40.326Z,100059.59
2023-03-30T11:44:42.460Z,100062.84
2023-03-30T11:48:11.959Z,100077.47
2023-03-30T11:51:35.644Z,100058.31
2023-03-30T11:55:01.859Z,100056.94
2023-03-30T11:58:38.139Z,100074.69
2023-03-30T12:01:50.261Z,100061.72
2023-03-30T12:05:01.791Z,100080.44
2023-03-30T12:08:20.985Z,100087.88
2023-03-30T12:11:49.850Z,100101.69
2023-03-30T12:15:26.688Z,100107.72
2023-03-30T12:18:37.186Z,100116.97
2023-03-30T12:21:49.737Z,100110.91
2023-03-30T12:24:53.154Z,100108.13
2023-03-30T12:28:16.856Z,100095.47
2023-03-30T12:31:18.580Z,100101.50
2023-03-30T12:34:21.378Z,100099.28
2023-03-30T12:37:35.440Z,100105.22
2023-03-30T12:40:38.244Z,100095.50
2023-03-30T12:43:57.945Z,100100.75
2023-03-30T12:47:33.664Z,100101.44
2023-03-30T12:50:57.561Z,100097.22
2023-03-30T12:54:23.264Z,100098.06
2023-03-30T12:57:57.169Z,100103.41
2023-03-30T13:01:14.000Z,100092.97
2023-03-30T13:04:24.003Z,100087.91
2023-03-30T13:07:32.042Z,100102.28
2023-03-30T13:10:38.619Z,100075.38
2023-03-30T13:14:00.954Z,100078.91
2023-03-30T13:17:02.731Z,100077.63
2023-03-30T13:20:29.151Z,100079.19
2023-03-30T13:23:35.517Z,100061.16
2023-03-30T13:26:43.870Z,100065.00
2023-03-30T13:30:02.389Z,100063.72
2023-03-30T13:33:18.962Z,100058.09
2023-03-30T13:36:29.996Z,100063.44
2023-03-30T13:39:42.873Z,100057.22
2023-03-30T13:42:47.101Z,100061.88
2023-03-30T13:46:16.939Z,100070.19
2023-03-30T13:49:19.207Z,100064.41
2023-03-30T13:52:39.391Z,100065.97
2023-03-30T13:55:48.116Z,100060.47
2023-03-30T13:59:03.427Z,100075.53
2023-03-30T14:02:05.944Z,100090.88
2023-03-30T14:05:20.673Z,100081.75
2023-03-30T14:08:22.234Z,100079.88
2023-03-30T14:11:33.438Z,100077.78
2023-03-30T14:14:38.448Z,100078.16
2023-03-30T14:17:40.060Z,100078.59
2023-03-30T14:20:57.183Z,100070.13
2023-03-30T14:24:02.419Z,100068.47
2023-03-30T14:27:22.440Z,100061.16
2023-03-30T14:30:29.037Z,100071.00
2023-03-30T14:33:32.974Z,100067.09
2023-03-30T14:36:34.581Z,100062.00
2023-03-30T14:39:52.630Z,100064.53
2023-03-30T14:42:54.261Z,100063.00
2023-03-30T14:45:59.666Z,100060.34
2023-03-30T14:49:01.625Z,100062.88
2023-03-30T14:52:08.995Z,100067.94
2023-03-30T14:55:18.865Z,100072.00
2023-03-30T14:58:21.164Z,100064.81
2023-03-30T15:01:31.246Z,100061.41
2023-03-30T15:04:37.512Z,100069.44
2023-03-30T15:07:40.159Z,100067.03
2023-03-30T15:10:49.738Z,100066.19
2023-03-30T15:14:01.694Z,100070.16
2023-03-30T15:17:11.095Z,100076.94
2023-03-30T15:20:14.073Z,100079.75
2023-03-30T15:23:16.656Z,100094.13
2023-03-30T15:26:19.107Z,100096.22
2023-03-30T15:29:23.187Z,100097.22
2023-03-30T15:32:35.287Z,100081.72
2023-03-30T15:35:37.789Z,100085.97
2023-03-30T15:38:51.432Z,100095.00
2023-03-30T15:41:55.996Z,100092.03
2023-03-30T15:45:12.107Z,100091.63
2023-03-30T15:48:13.738Z,100091.16
2023-03-30T15:51:28.848Z,100095.94
2023-03-30T15:54:40.427Z,100086.50
2023-03-30T15:57:45.995Z,100088.34
2023-03-30T16:00:48.467Z,100085.38
2023-03-30T16:04:01.471Z,100075.25
2023-03-30T16:07:13.986Z,100089.47
2023-03-30T16:10:26.425Z,100089.75
2023-03-30T16:13:28.039Z,100093.41
2023-03-30T16:16:29.859Z,100087.38
2023-03-30T16:19:31.473Z,100091.44
2023-03-30T16:22:33.038Z,100087.38
2023-03-30T16:25:44.802Z,100088.59
2023-03-30T16:28:50.986Z,100083.41
2023-03-30T16:31:53.858Z,100090.03
2023-03-30T16:34:55.613Z,100093.81
2023-03-30T16:37:58.498Z,100083.25
2023-03-30T16:41:01.549Z,100080.72
2023-03-30T16:44:03.109Z,100086.34
2023-03-30T16:47:04.954Z,100086.63
2023-03-30T16:50:40.914Z,100099.44
2023-03-30T16:53:42.621Z,100097.28
2023-03-30T16:56:44.327Z,100093.75
2023-03-30T16:59:45.861Z,100096.66
2023-03-30T17:02:50.568Z,100097.75
2023-03-30T17:05:52.222Z,100089.97
2023-03-30T17:08:55.460Z,100089.91
2023-03-30T17:11:57.337Z,100087.91
2023-03-30T17:14:58.905Z,100095.63
2023-03-30T17:18:00.523Z,100099.78
2023-03-30T17:21:02.247Z,100107.34
2023-03-30T17:24:03.972Z,100103.38
2023-03-30T17:27:06.298Z,100112.50
2023-03-30T17:30:34.393Z,100112.03
2023-03-30T17:33:36.248Z,100122.06
2023-03-30T17:36:38.974Z,100114.38
2023-03-30T17:39:40.633Z,100128.84
2023-03-30T17:42:42.420Z,100121.41
2023-03-30T17:45:44.658Z,100129.94
2023-03-30T17:48:46.412Z,100112.84
2023-03-30T17:51:47.918Z,100126.88
2023-03-30T17:54:49.443Z,100126.03
2023-03-30T17:57:51.976Z,100129.69
2023-03-30T18:00:53.893Z,100123.03
2023-03-30T18:03:55.480Z,100126.81
2023-03-30T18:06:57.170Z,100136.91
2023-03-30T18:09:58.743Z,100136.31
2023-03-30T18:13:00.379Z,100128.56
2023-03-30T18:16:02.161Z,100135.00
2023-03-30T18:19:03.760Z,100141.59
2023-03-30T18:22:06.607Z,100137.50
2023-03-30T18:25:09.717Z,100149.28
2023-03-30T18:28:16.925Z,100141.91
2023-03-30T18:31:18.500Z,100145.94
2023-03-30T18:34:20.261Z,100153.34
2023-03-30T18:37:21.843Z,100156.28
2023-03-30T18:40:32.678Z,100148.78
2023-03-30T18:43:35.742Z,100153.66
2023-03-30T18:46:37.315Z,100153.03
2023-03-30T18:49:39.404Z,100150.75
2023-03-30T18:52:41.017Z,100158.00
2023-03-30T18:55:47.586Z,100155.50
2023-03-30T18:58:49.236Z,100152.91
2023-03-30T19:01:51.480Z,100155.59
2023-03-30T19:04:55.652Z,100158.41
2023-03-30T19:07:57.630Z,100157.44
2023-03-30T19:10:59.185Z,100157.53
2023-03-30T19:14:02.177Z,100163.97
2023-03-30T19:17:04.042Z,100165.94
2023-03-30T19:20:07.106Z,100165.22
2023-03-30T19:23:12.381Z,100167.41
2023-03-30T19:26:14.125Z,100166.78
2023-03-30T19:29:15.777Z,100156.38
2023-03-30T19:32:19.549Z,100161.13
2023-03-30T19:35:21.219Z,100169.50
2023-03-30T19:38:22.878Z,100163.56
2023-03-30T19:41:24.481Z,100159.44
2023-03-30T19:44:26.083Z,100159.06
2023-03-30T19:47:30.879Z,100149.78
2023-03-30T19:50:32.714Z,100157.41
2023-03-30T19:53:35.734Z,100157.66
2023-03-30T19:56:37.438Z,100154.25
2023-03-30T19:59:39.088Z,100151.72
2023-03-30T20:02:41.935Z,100164.09
2023-03-30T20:05:50.116Z,100154.38
2023-03-30T20:08:53.462Z,100155.34
2023-03-30T20:11:55.973Z,100154.50
2023-03-30T20:14:58.944Z,100153.66
2023-03-30T20:18:00.740Z,100155.59
2023-03-30T20:21:03.652Z,100149.41
2023-03-30T20:24:05.784Z,100140.44
2023-03-30T20:27:07.424Z,100144.94
2023-03-30T20:30:09.765Z,100141.53
2023-03-30T20:33:11.359Z,100138.16
2023-03-30T20:36:13.052Z,100130.28
2023-03-30T20:39:14.662Z,100135.50
2023-03-30T20:42:18.145Z,100128.34
2023-03-30T20:45:26.019Z,100127.38
2023-03-30T20:48:39.282Z,100128.97
2023-03-30T20:51:43.264Z,100135.00
2023-03-30T20:54:45.081Z,100132.13
2023-03-30T20:57:46.636Z,100124.94
2023-03-30T21:00:52.136Z,100126.50
2023-03-30T21:04:01.874Z,100123.84
2023-03-30T21:07:03.559Z,100116.13
2023-03-30T21:10:05.862Z,100110.03
2023-03-30T21:13:07.424Z,100110.19
2023-03-30T21:16:09.118Z,100110.31
2023-03-30T21:19:11.377Z,100111.28
2023-03-30T21:22:12.937Z,100104.38
2023-03-30T21:25:14.799Z,100105.47
2023-03-30T21:28:16.375Z,100104.75
2023-03-30T21:31:17.985Z,100097.84
2023-03-30T21:34:20.256Z,100097.84
2023-03-30T21:37:21.759Z,100087.28
2023-03-30T21:40:23.349Z,100095.41
2023-03-30T21:43:25.762Z,100092.75
2023-03-30T21:46:27.456Z,100093.63
2023-03-30T21:49:29.022Z,100089.13
2023-03-30T21:52:31.186Z,100082.97
2023-03-30T21:55:32.710Z,100087.66
2023-03-30T21:58:34.502Z,100080.66
2023-03-30T22:01:36.115Z,100077.00
2023-03-30T22:04:37.839Z,100076.06
2023-03-30T22:07:40.075Z,100071.59
2023-03-30T22:10:42.505Z,100071.59
2023-03-30T22:13:46.089Z,100070.72
2023-03-30T22:16:49.396Z,100069.38
2023-03-30T22:19:51.948Z,100067.56
2023-03-30T22:22:53.628Z,100062.38
2023-03-30T22:25:55.772Z,100063.56
2023-03-30T22:28:57.520Z,100055.94
2023-03-30T22:31:59.183Z,100062.59
2023-03-30T22:35:01.031Z,100054.28
2023-03-30T22:38:02.638Z,100061.66
2023-03-30T22:41:07.601Z,100057.41
2023-03-30T22:44:09.699Z,100059.50
2023-03-30T22:47:11.289Z,100065.06
2023-03-30T22:50:12.850Z,100059.00
2023-03-30T22:53:14.375Z,100049.31
2023-03-30T22:56:16.376Z,100054.78
2023-03-30T22:59:17.920Z,100044.34
2023-03-30T23:02:19.485Z,100049.06
2023-03-30T23:05:21.451Z,100046.63
2023-03-30T23:08:23.997Z,100043.34
2023-03-30T23:11:26.432Z,100054.00
2023-03-30T23:14:28.211Z,100055.09
2023-03-30T23:17:32.608Z,100050.84
2023-03-30T23:20:34.182Z,100052.66
2023-03-30T23:23:36.339Z,100053.66
2023-03-30T23:26:38.049Z,100049.53
2023-03-30T23:29:39.747Z,100043.38
2023-03-30T23:32:41.900Z,100040.72
2023-03-30T23:35:49.494Z,100035.25
2023-03-30T23:38:57.177Z,100038.88
2023-03-30T23:41:58.768Z,100026.56
2023-03-30T23:45:00.486Z,100031.03
2023-03-30T23:48:02.116Z,100026.56
2023-03-30T23:51:04.040Z,100026.66
2023-03-30T23:54:07.146Z,100020.50
2023-03-30T23:57:09.803Z,100017.84
